Rimersburg, Pennsylvania
Current Conditions -  °F | °C
As of 9:15 AM on Thursday 29 Jan 2015 (Local Time) from KBTP Reporting Station
Few Clouds Few Clouds  
Wind Chill: 19°   Ceiling: Unl
Heat Index: 27°   Visibility: 10mi
Dew Point:   Wind: 7mph
Humidity: 47%   Direction: 120°ESE
Pressure: 30"   Gusts: NA
Location:  41.04°N, 79.5°W
Report Text: KBTP 291415Z AUTO 12006KT 10SM FEW100 M03/M13 A3000 RMK AO1
Loading
Personal Weather Stations






























Interactive Weather Map New forecast layout! Learn more

10-Day Weather Forecast

Advertisements
Track Severe Weather on mobile